createdAt,value
2019-05-22T00:00:30.349Z,95996.49
2019-05-22T00:02:57.402Z,95998.95
2019-05-22T00:05:24.713Z,95994.38
2019-05-22T00:07:51.761Z,95998.30
2019-05-22T00:10:19.076Z,95994.20
2019-05-22T00:12:47.261Z,95994.38
2019-05-22T00:15:14.438Z,96000.41
2019-05-22T00:17:41.498Z,96007.09
2019-05-22T00:20:08.533Z,95999.92
2019-05-22T00:22:35.590Z,96010.86
2019-05-22T00:25:02.634Z,96012.98
2019-05-22T00:27:29.984Z,96017.56
2019-05-22T00:29:57.326Z,96018.20
2019-05-22T00:32:24.381Z,96014.95
2019-05-22T00:34:51.730Z,96017.89
2019-05-22T00:37:18.853Z,96019.19
2019-05-22T00:39:45.901Z,96023.44
2019-05-22T00:42:13.281Z,96031.10
2019-05-22T00:44:40.638Z,96026.03
2019-05-22T00:47:07.688Z,96029.13
2019-05-22T00:49:35.057Z,96030.78
2019-05-22T00:52:02.089Z,96028.66
2019-05-22T00:54:29.469Z,96025.55
2019-05-22T00:56:56.526Z,96022.94
2019-05-22T00:59:24.974Z,96022.30
2019-05-22T01:01:53.250Z,96026.22
2019-05-22T01:04:20.303Z,96024.91
2019-05-22T01:06:47.387Z,96023.44
2019-05-22T01:09:14.665Z,96024.25
2019-05-22T01:11:42.077Z,96024.58
2019-05-22T01:14:09.125Z,96032.75
2019-05-22T01:16:36.478Z,96035.19
2019-05-22T01:19:03.819Z,96036.33
2019-05-22T01:21:31.187Z,96032.58
2019-05-22T01:23:58.550Z,96035.52
2019-05-22T01:26:25.589Z,96033.23
2019-05-22T01:28:52.930Z,96034.05
2019-05-22T01:31:19.974Z,96035.36
2019-05-22T01:33:47.031Z,96032.91
2019-05-22T01:36:14.076Z,96032.91
2019-05-22T01:38:41.426Z,96033.08
2019-05-22T01:41:08.468Z,96036.02
2019-05-22T01:43:35.831Z,96035.52
2019-05-22T01:46:03.129Z,96036.19
2019-05-22T01:48:30.179Z,96039.29
2019-05-22T01:50:57.513Z,96035.54
2019-05-22T01:53:24.796Z,96040.10
2019-05-22T01:55:51.918Z,96044.68
2019-05-22T01:58:18.981Z,96043.38
2019-05-22T02:00:46.305Z,96040.93
2019-05-22T02:03:13.647Z,96044.86
2019-05-22T02:05:41.024Z,96040.13
2019-05-22T02:08:08.151Z,96045.51
2019-05-22T02:10:35.193Z,96040.45
2019-05-22T02:13:02.476Z,96039.31
2019-05-22T02:15:29.528Z,96048.95
2019-05-22T02:17:57.650Z,96044.53
2019-05-22T02:20:25.031Z,96044.21
2019-05-22T02:22:52.407Z,96045.20
2019-05-22T02:25:19.752Z,96044.05
2019-05-22T02:27:47.117Z,96043.08
2019-05-22T02:30:14.507Z,96051.41
2019-05-22T02:32:41.807Z,96049.12
2019-05-22T02:35:08.864Z,96049.45
2019-05-22T02:37:36.218Z,96052.87
2019-05-22T02:40:03.585Z,96054.02
2019-05-22T02:42:30.994Z,96056.13
2019-05-22T02:44:58.084Z,96056.95
2019-05-22T02:47:25.375Z,96062.34
2019-05-22T02:49:52.783Z,96059.06
2019-05-22T02:52:20.139Z,96063.97
2019-05-22T02:54:47.218Z,96065.12
2019-05-22T02:57:14.248Z,96061.20
2019-05-22T02:59:41.428Z,96062.83
2019-05-22T03:02:08.465Z,96067.07
2019-05-22T03:04:35.516Z,96067.89
2019-05-22T03:07:02.804Z,96069.52
2019-05-22T03:09:29.864Z,96074.25
2019-05-22T03:11:57.260Z,96073.11
2019-05-22T03:14:24.300Z,96077.20
2019-05-22T03:16:51.361Z,96077.69
2019-05-22T03:19:18.398Z,96082.59
2019-05-22T03:21:45.766Z,96075.56
2019-05-22T03:24:13.113Z,96078.50
2019-05-22T03:26:40.182Z,96082.91
2019-05-22T03:29:07.498Z,96078.17
2019-05-22T03:31:34.814Z,96080.78
2019-05-22T03:34:02.106Z,96087.31
2019-05-22T03:36:29.455Z,96081.61
2019-05-22T03:38:56.811Z,96084.22
2019-05-22T03:41:23.879Z,96086.02
2019-05-22T03:43:51.191Z,96089.11
2019-05-22T03:46:18.570Z,96089.93
2019-05-22T03:48:45.926Z,96089.93
2019-05-22T03:51:13.340Z,96091.06
2019-05-22T03:53:40.358Z,96085.84
2019-05-22T03:56:07.418Z,96089.27
2019-05-22T03:58:34.555Z,96086.17
2019-05-22T04:01:01.616Z,96088.94
2019-05-22T04:03:28.936Z,96092.36
2019-05-22T04:05:56.016Z,96089.27
2019-05-22T04:08:23.353Z,96085.84
2019-05-22T04:10:50.416Z,96093.67
2019-05-22T04:13:18.612Z,96091.87
2019-05-22T04:15:46.013Z,96093.34
2019-05-22T04:18:13.325Z,96101.66
2019-05-22T04:20:40.750Z,96103.29
2019-05-22T04:23:08.160Z,96106.23
2019-05-22T04:25:35.557Z,96106.38
2019-05-22T04:28:04.042Z,96104.27
2019-05-22T04:30:31.393Z,96102.95
2019-05-22T04:32:58.751Z,96100.67
2019-05-22T04:35:25.799Z,96107.69
2019-05-22T04:37:52.969Z,96108.51
2019-05-22T04:40:20.301Z,96113.74
2019-05-22T04:42:47.347Z,96105.91
2019-05-22T04:45:14.385Z,96112.11
2019-05-22T04:47:41.445Z,96118.31
2019-05-22T04:50:09.963Z,96111.13
2019-05-22T04:52:36.988Z,96111.78
2019-05-22T04:55:04.028Z,96106.55
2019-05-22T04:57:31.152Z,96115.53
2019-05-22T04:59:58.525Z,96112.10
2019-05-22T05:02:25.866Z,96118.31
2019-05-22T05:04:52.908Z,96117.01
2019-05-22T05:07:19.963Z,96124.03
2019-05-22T05:09:47.008Z,96126.97
2019-05-22T05:12:14.224Z,96125.33
2019-05-22T05:14:41.631Z,96124.50
2019-05-22T05:17:08.986Z,96121.72
2019-05-22T05:19:37.112Z,96126.95
2019-05-22T05:22:04.500Z,96125.48
2019-05-22T05:24:31.859Z,96133.81
2019-05-22T05:26:58.942Z,96131.52
2019-05-22T05:29:26.033Z,96138.05
2019-05-22T05:31:53.408Z,96136.25
2019-05-22T05:34:20.466Z,96134.95
2019-05-22T05:36:47.836Z,96134.29
2019-05-22T05:39:15.143Z,96145.56
2019-05-22T05:41:42.185Z,96142.13
2019-05-22T05:44:09.239Z,96150.09
2019-05-22T05:46:36.635Z,96149.31
2019-05-22T05:49:03.745Z,96150.30
2019-05-22T05:51:31.022Z,96142.26
2019-05-22T05:53:58.076Z,96150.25
2019-05-22T05:56:25.134Z,96150.88
2019-05-22T05:58:52.222Z,96148.91
2019-05-22T06:01:19.527Z,96152.65
2019-05-22T06:03:46.876Z,96151.33
2019-05-22T06:06:13.927Z,96157.07
2019-05-22T06:08:40.993Z,96154.94
2019-05-22T06:11:08.034Z,96160.00
2019-05-22T06:13:35.392Z,96158.21
2019-05-22T06:16:02.481Z,96149.23
2019-05-22T06:18:29.899Z,96164.91
2019-05-22T06:21:03.789Z,96162.80
2019-05-22T06:23:26.241Z,96172.59
2019-05-22T06:25:53.602Z,96172.59
2019-05-22T06:28:20.938Z,96169.81
2019-05-22T06:30:48.256Z,96177.16
2019-05-22T06:33:15.653Z,96178.12
2019-05-22T06:35:42.711Z,96176.50
2019-05-22T06:38:10.048Z,96176.84
2019-05-22T06:40:37.457Z,96178.47
2019-05-22T06:43:04.705Z,96181.74
2019-05-22T06:45:31.764Z,96180.25
2019-05-22T06:47:59.063Z,96181.25
2019-05-22T06:50:26.418Z,96185.17
2019-05-22T06:53:08.904Z,96190.41
2019-05-22T06:55:22.561Z,96186.66
2019-05-22T06:57:49.932Z,96192.53
2019-05-22T07:00:16.992Z,96190.41
2019-05-22T07:02:44.107Z,96195.16
2019-05-22T07:05:11.485Z,96196.63
2019-05-22T07:07:38.780Z,96195.47
2019-05-22T07:10:06.187Z,96195.31
2019-05-22T07:12:33.558Z,96198.25
2019-05-22T07:15:00.715Z,96196.95
2019-05-22T07:17:29.493Z,96199.23
2019-05-22T07:19:56.829Z,96196.63
2019-05-22T07:22:23.887Z,96196.30
2019-05-22T07:24:51.233Z,96198.75
2019-05-22T07:27:18.595Z,96201.19
2019-05-22T07:29:45.941Z,96204.30
2019-05-22T07:32:13.320Z,96200.87
2019-05-22T07:34:40.366Z,96207.88
2019-05-22T07:37:07.700Z,96207.22
2019-05-22T07:39:35.059Z,96205.91
2019-05-22T07:42:02.187Z,96209.33
2019-05-22T07:44:29.230Z,96215.89
2019-05-22T07:46:56.609Z,96211.80
2019-05-22T07:49:24.829Z,96218.34
2019-05-22T07:52:00.697Z,96214.91
2019-05-22T07:54:20.861Z,96214.89
2019-05-22T07:56:48.288Z,96217.28
2019-05-22T07:59:15.334Z,96220.22
2019-05-22T08:01:42.690Z,96216.61
2019-05-22T08:04:10.041Z,96211.55
2019-05-22T08:06:37.397Z,96221.19
2019-05-22T08:09:04.449Z,96220.03
2019-05-22T08:11:31.857Z,96219.20
2019-05-22T08:13:59.309Z,96230.13
2019-05-22T08:16:26.366Z,96227.64
2019-05-22T08:18:53.410Z,96225.77
2019-05-22T08:21:23.379Z,96226.84
2019-05-22T08:23:49.497Z,96225.64
2019-05-22T08:26:16.899Z,96222.78
2019-05-22T08:28:44.210Z,96227.38
2019-05-22T08:31:11.565Z,96226.02
2019-05-22T08:33:38.620Z,96227.94
2019-05-22T08:36:05.721Z,96232.51
2019-05-22T08:38:33.021Z,96235.42
2019-05-22T08:41:00.063Z,96234.39
2019-05-22T08:43:27.419Z,96237.45
2019-05-22T08:45:54.713Z,96237.28
2019-05-22T08:48:22.126Z,96240.86
2019-05-22T08:50:49.525Z,96240.39
2019-05-22T08:53:16.944Z,96247.11
2019-05-22T08:55:44.297Z,96238.66
2019-05-22T08:58:11.372Z,96246.98
2019-05-22T09:00:38.409Z,96248.67
2019-05-22T09:03:05.467Z,96246.58
2019-05-22T09:05:32.518Z,96243.95
2019-05-22T09:07:59.952Z,96247.88
2019-05-22T09:10:27.305Z,96251.09
2019-05-22T09:12:54.656Z,96250.25
2019-05-22T09:15:21.716Z,96253.41
2019-05-22T09:17:48.847Z,96249.16
2019-05-22T09:20:16.203Z,96252.59
2019-05-22T09:22:43.537Z,96252.94
2019-05-22T09:25:10.623Z,96248.36
2019-05-22T09:27:38.088Z,96256.06
2019-05-22T09:30:05.189Z,96250.03
2019-05-22T09:32:32.596Z,96254.97
2019-05-22T09:34:59.636Z,96261.81
2019-05-22T09:37:26.697Z,96259.94
2019-05-22T09:39:54.026Z,96259.05
2019-05-22T09:42:21.377Z,96262.14
2019-05-22T09:44:48.736Z,96265.98
2019-05-22T09:47:15.798Z,96272.31
2019-05-22T09:49:43.161Z,96261.78
2019-05-22T09:52:10.231Z,96266.92
2019-05-22T09:54:37.645Z,96275.45
2019-05-22T09:57:04.976Z,96270.86
2019-05-22T09:59:32.354Z,96277.28
2019-05-22T10:01:59.708Z,96284.28
2019-05-22T10:04:27.070Z,96280.97
2019-05-22T10:06:54.193Z,96285.70
2019-05-22T10:09:21.609Z,96292.99
2019-05-22T10:11:49.026Z,96296.14
2019-05-22T10:14:16.343Z,96292.55
2019-05-22T10:16:43.741Z,96295.87
2019-05-22T10:19:11.089Z,96298.52
2019-05-22T10:21:38.136Z,96302.13
2019-05-22T10:24:06.620Z,96301.88
2019-05-22T10:26:33.669Z,96302.98
2019-05-22T10:29:01.043Z,96296.90
2019-05-22T10:31:29.509Z,96303.80
2019-05-22T10:33:56.574Z,96304.79
2019-05-22T10:36:23.617Z,96302.14
2019-05-22T10:38:51.077Z,96301.67
2019-05-22T10:41:18.121Z,96298.31
2019-05-22T10:43:45.180Z,96305.41
2019-05-22T10:46:12.797Z,96305.36
2019-05-22T10:48:40.803Z,96308.67
2019-05-22T10:51:08.248Z,96312.77
2019-05-22T10:53:35.308Z,96319.75
2019-05-22T10:56:02.890Z,96318.88
2019-05-22T10:58:29.985Z,96313.02
2019-05-22T11:00:57.030Z,96318.31
2019-05-22T11:03:24.084Z,96310.16
2019-05-22T11:06:05.585Z,96316.41
2019-05-22T11:08:20.301Z,96317.67
2019-05-22T11:10:47.301Z,96318.05
2019-05-22T11:13:14.645Z,96318.55
2019-05-22T11:15:41.997Z,96323.94
2019-05-22T11:18:09.060Z,96322.80
2019-05-22T11:20:36.405Z,96324.14
2019-05-22T11:23:03.784Z,96326.77
2019-05-22T11:25:31.136Z,96331.88
2019-05-22T11:27:58.177Z,96327.30
2019-05-22T11:30:25.244Z,96330.05
2019-05-22T11:32:52.286Z,96334.98
2019-05-22T11:35:19.347Z,96330.13
2019-05-22T11:37:46.662Z,96332.44
2019-05-22T11:40:13.720Z,96336.86
2019-05-22T11:42:41.085Z,96337.98
2019-05-22T11:45:08.124Z,96339.31
2019-05-22T11:47:35.466Z,96334.08
2019-05-22T11:50:02.562Z,96336.20
2019-05-22T11:52:30.000Z,96335.39
2019-05-22T11:54:57.324Z,96334.90
2019-05-22T11:57:24.374Z,96331.79
2019-05-22T11:59:51.787Z,96337.34
2019-05-22T12:02:18.826Z,96336.87
2019-05-22T12:04:48.681Z,96343.73
2019-05-22T12:07:15.050Z,96346.00
2019-05-22T12:09:42.402Z,96344.05
2019-05-22T12:12:09.765Z,96347.95
2019-05-22T12:14:37.072Z,96342.82
2019-05-22T12:17:04.447Z,96357.19
2019-05-22T12:19:31.808Z,96350.98
2019-05-22T12:21:59.167Z,96353.55
2019-05-22T12:24:32.448Z,96348.78
2019-05-22T12:26:55.280Z,96357.98
2019-05-22T12:29:23.680Z,96364.05
2019-05-22T12:31:50.775Z,96358.70
2019-05-22T12:34:18.259Z,96359.83
2019-05-22T12:36:45.650Z,96358.14
2019-05-22T12:39:12.711Z,96359.87
2019-05-22T12:41:40.107Z,96358.94
2019-05-22T12:44:07.508Z,96361.16
2019-05-22T12:46:34.859Z,96366.14
2019-05-22T12:49:01.905Z,96357.52
2019-05-22T12:51:29.276Z,96362.02
2019-05-22T12:53:56.324Z,96367.73
2019-05-22T12:56:23.661Z,96362.31
2019-05-22T12:58:51.019Z,96363.72
2019-05-22T13:01:18.375Z,96365.19
2019-05-22T13:03:45.417Z,96357.32
2019-05-22T13:06:12.473Z,96357.47
2019-05-22T13:08:39.825Z,96357.11
2019-05-22T13:11:06.887Z,96364.92
2019-05-22T13:13:33.930Z,96361.10
2019-05-22T13:16:01.063Z,96358.60
2019-05-22T13:18:28.123Z,96362.49
2019-05-22T13:20:55.180Z,96365.56
2019-05-22T13:23:22.220Z,96358.06
2019-05-22T13:25:49.574Z,96356.11
2019-05-22T13:28:17.029Z,96362.80
2019-05-22T13:30:44.089Z,96357.30
2019-05-22T13:33:11.139Z,96359.98
2019-05-22T13:35:38.201Z,96357.23
2019-05-22T13:38:05.551Z,96362.22
2019-05-22T13:40:32.606Z,96365.78
2019-05-22T13:42:59.932Z,96356.34
2019-05-22T13:45:29.791Z,96357.66
2019-05-22T13:47:56.094Z,96365.37
2019-05-22T13:50:23.451Z,96372.77
2019-05-22T13:52:50.808Z,96365.03
2019-05-22T13:55:17.869Z,96365.34
2019-05-22T13:57:46.283Z,96371.23
2019-05-22T14:00:13.343Z,96361.92
2019-05-22T14:02:40.405Z,96361.26
2019-05-22T14:05:07.782Z,96364.63
2019-05-22T14:07:35.137Z,96366.72
2019-05-22T14:10:02.535Z,96367.81
2019-05-22T14:12:29.992Z,96369.24
2019-05-22T14:14:57.079Z,96364.48
2019-05-22T14:17:24.139Z,96360.22
2019-05-22T14:19:51.609Z,96350.11
2019-05-22T14:22:18.944Z,96358.59
2019-05-22T14:24:45.987Z,96356.53
2019-05-22T14:27:13.044Z,96350.52
2019-05-22T14:29:40.412Z,96349.63
2019-05-22T14:32:07.482Z,96352.81
2019-05-22T14:34:34.799Z,96350.06
2019-05-22T14:37:02.148Z,96351.62
2019-05-22T14:39:29.188Z,96356.48
2019-05-22T14:41:56.553Z,96355.42
2019-05-22T14:44:23.608Z,96355.77
2019-05-22T14:46:50.681Z,96355.95
2019-05-22T14:49:20.815Z,96351.86
2019-05-22T14:51:46.769Z,96351.80
2019-05-22T14:54:14.794Z,96350.95
2019-05-22T14:56:41.844Z,96340.23
2019-05-22T14:59:08.888Z,96334.21
2019-05-22T15:01:36.213Z,96333.83
2019-05-22T15:04:03.572Z,96337.59
2019-05-22T15:06:30.650Z,96337.31
2019-05-22T15:08:57.973Z,96339.86
2019-05-22T15:11:25.328Z,96342.47
2019-05-22T15:13:52.380Z,96333.35
2019-05-22T15:16:19.442Z,96333.40
2019-05-22T15:18:46.778Z,96338.98
2019-05-22T15:21:13.835Z,96334.87
2019-05-22T15:23:41.182Z,96336.13
2019-05-22T15:26:08.247Z,96334.05
2019-05-22T15:28:35.894Z,96329.37
2019-05-22T15:31:02.958Z,96327.39
2019-05-22T15:33:30.325Z,96324.84
2019-05-22T15:35:57.373Z,96328.05
2019-05-22T15:38:24.447Z,96324.26
2019-05-22T15:41:05.061Z,96323.75
2019-05-22T15:43:32.435Z,96318.56
2019-05-22T15:45:59.511Z,96311.94
2019-05-22T15:51:11.144Z,96311.39
2019-05-22T15:53:44.125Z,96313.67
2019-05-22T16:02:01.364Z,96313.86
2019-05-22T16:04:29.296Z,96314.02
2019-05-22T16:06:56.504Z,96315.74
2019-05-22T16:09:26.897Z,96319.95
2019-05-22T16:11:59.979Z,96316.81
2019-05-22T16:17:27.039Z,96312.31
2019-05-22T16:19:56.516Z,96310.06
2019-05-22T16:22:26.906Z,96314.17
2019-05-22T16:24:56.333Z,96312.11
2019-05-22T16:27:23.553Z,96311.36
2019-05-22T16:29:50.602Z,96318.77
2019-05-22T16:32:22.835Z,96318.02
2019-05-22T16:34:56.882Z,96322.16
2019-05-22T16:37:26.092Z,96321.81
2019-05-22T16:40:12.129Z,96325.38
2019-05-22T16:45:27.065Z,96325.55
2019-05-22T17:01:12.424Z,96327.59
2019-05-22T17:03:44.492Z,96324.66
2019-05-22T17:06:23.914Z,96325.11
2019-05-22T17:08:52.469Z,96333.69
2019-05-22T17:11:20.975Z,96323.48
2019-05-22T17:13:52.547Z,96325.61
2019-05-22T17:16:23.443Z,96331.11
2019-05-22T17:18:52.689Z,96325.47
2019-05-22T17:24:12.645Z,96330.66
2019-05-22T17:26:43.509Z,96328.81
2019-05-22T17:29:11.723Z,96330.41
2019-05-22T17:31:47.234Z,96331.64
2019-05-22T17:34:18.867Z,96333.64
2019-05-22T17:36:57.326Z,96329.30
2019-05-22T17:39:24.934Z,96332.19
2019-05-22T17:41:57.258Z,96328.34
2019-05-22T17:47:16.717Z,96329.46
2019-05-22T17:49:45.224Z,96337.91
2019-05-22T17:52:19.411Z,96338.48
2019-05-22T17:54:46.888Z,96337.07
2019-05-22T18:02:53.514Z,96334.52
2019-05-22T18:07:57.085Z,96341.34
2019-05-22T18:10:25.689Z,96350.06
2019-05-22T18:13:07.999Z,96350.59
2019-05-22T18:26:16.454Z,96349.66
2019-05-22T18:28:43.935Z,96351.66
2019-05-22T18:31:10.976Z,96359.89
2019-05-22T18:36:13.607Z,96363.88
2019-05-22T18:38:40.864Z,96361.48
2019-05-22T18:41:26.336Z,96360.70
2019-05-22T18:43:53.960Z,96358.28
2019-05-22T18:49:24.661Z,96362.44
2019-05-22T18:52:08.348Z,96362.80
2019-05-22T18:57:17.190Z,96366.47
2019-05-22T18:59:44.918Z,96364.20
2019-05-22T19:02:18.276Z,96372.87
2019-05-22T19:04:46.841Z,96374.52
2019-05-22T19:07:24.353Z,96376.03
2019-05-22T19:09:52.907Z,96368.67
2019-05-22T19:15:26.993Z,96378.28
2019-05-22T19:20:58.164Z,96385.29
2019-05-22T19:23:41.781Z,96383.80
2019-05-22T19:26:12.882Z,96383.66
2019-05-22T19:28:51.217Z,96386.11
2019-05-22T19:31:20.828Z,96390.51
2019-05-22T19:33:58.848Z,96389.69
2019-05-22T19:39:20.292Z,96398.50
2019-05-22T19:54:58.193Z,96409.89
2019-05-22T20:00:22.620Z,96409.38
2019-05-22T20:02:50.801Z,96412.78
2019-05-22T20:05:18.377Z,96417.02
2019-05-22T20:07:46.064Z,96418.13
2019-05-22T20:10:14.450Z,96417.97
2019-05-22T20:12:41.979Z,96417.94
2019-05-22T20:15:09.044Z,96417.25
2019-05-22T20:17:36.369Z,96421.63
2019-05-22T20:20:04.554Z,96417.84
2019-05-22T20:22:32.119Z,96427.94
2019-05-22T20:24:59.473Z,96433.46
2019-05-22T20:27:26.580Z,96430.50
2019-05-22T20:29:53.629Z,96427.17
2019-05-22T20:32:20.666Z,96430.39
2019-05-22T20:34:47.795Z,96431.48
2019-05-22T20:37:15.123Z,96426.87
2019-05-22T20:39:42.188Z,96428.00
2019-05-22T20:42:09.535Z,96426.39
2019-05-22T20:44:36.573Z,96428.55
2019-05-22T20:47:04.604Z,96433.80
2019-05-22T20:49:31.631Z,96436.43
2019-05-22T20:51:58.687Z,96434.00
2019-05-22T20:54:25.723Z,96437.94
2019-05-22T20:56:52.779Z,96435.82
2019-05-22T20:59:19.823Z,96431.39
2019-05-22T21:01:47.049Z,96437.25
2019-05-22T21:04:14.340Z,96433.16
2019-05-22T21:06:41.408Z,96432.16
2019-05-22T21:09:08.795Z,96428.06
2019-05-22T21:11:35.853Z,96426.58
2019-05-22T21:14:02.974Z,96423.78
2019-05-22T21:16:30.028Z,96427.03
2019-05-22T21:18:57.072Z,96432.25
2019-05-22T21:21:24.444Z,96429.48
2019-05-22T21:23:51.489Z,96431.12
2019-05-22T21:26:18.852Z,96432.09
2019-05-22T21:28:46.201Z,96431.09
2019-05-22T21:31:13.559Z,96432.22
2019-05-22T21:33:40.594Z,96423.91
2019-05-22T21:36:07.647Z,96428.33
2019-05-22T21:38:35.013Z,96423.45
2019-05-22T21:41:02.379Z,96428.33
2019-05-22T21:43:29.729Z,96434.03
2019-05-22T21:45:56.773Z,96430.09
2019-05-22T21:48:23.841Z,96420.78
2019-05-22T21:50:50.867Z,96418.81
2019-05-22T21:53:18.237Z,96425.81
2019-05-22T21:55:45.802Z,96423.03
2019-05-22T21:58:14.054Z,96429.17
2019-05-22T22:00:41.098Z,96436.15
2019-05-22T22:03:08.679Z,96432.72
2019-05-22T22:05:37.163Z,96425.53
2019-05-22T22:08:04.518Z,96431.05
2019-05-22T22:10:31.854Z,96426.95
2019-05-22T22:12:59.166Z,96426.80
2019-05-22T22:15:26.289Z,96430.41
2019-05-22T22:17:53.715Z,96422.92
2019-05-22T22:20:20.758Z,96428.92
2019-05-22T22:22:48.137Z,96429.59
2019-05-22T22:25:15.183Z,96431.87
2019-05-22T22:27:42.540Z,96427.41
2019-05-22T22:30:09.581Z,96428.38
2019-05-22T22:32:36.639Z,96427.70
2019-05-22T22:35:03.970Z,96431.12
2019-05-22T22:37:31.094Z,96429.49
2019-05-22T22:39:58.127Z,96428.03
2019-05-22T22:42:25.189Z,96425.77
2019-05-22T22:44:52.227Z,96431.61
2019-05-22T22:47:19.285Z,96436.97
2019-05-22T22:49:46.317Z,96435.78
2019-05-22T22:52:13.378Z,96432.66
2019-05-22T22:54:40.412Z,96431.80
2019-05-22T22:57:07.473Z,96430.50
2019-05-22T22:59:34.758Z,96425.43
2019-05-22T23:02:02.114Z,96433.55
2019-05-22T23:04:29.176Z,96433.66
2019-05-22T23:06:56.216Z,96436.32
2019-05-22T23:09:23.263Z,96437.05
2019-05-22T23:11:50.627Z,96436.66
2019-05-22T23:14:17.686Z,96437.88
2019-05-22T23:16:44.728Z,96437.83
2019-05-22T23:19:11.854Z,96435.03
2019-05-22T23:21:39.211Z,96432.91
2019-05-22T23:24:06.569Z,96441.97
2019-05-22T23:26:33.856Z,96440.77
2019-05-22T23:29:00.910Z,96438.59
2019-05-22T23:31:27.946Z,96440.19
2019-05-22T23:33:55.297Z,96445.05
2019-05-22T23:36:22.326Z,96439.17
2019-05-22T23:38:49.671Z,96441.09
2019-05-22T23:41:16.706Z,96438.11
2019-05-22T23:43:44.073Z,96437.41
2019-05-22T23:46:11.118Z,96436.05
2019-05-22T23:48:38.480Z,96440.87
2019-05-22T23:51:05.774Z,96437.39
2019-05-22T23:53:33.092Z,96441.30
2019-05-22T23:56:00.444Z,96433.20
2019-05-22T23:58:27.819Z,96435.33
